Portada
METAR-TAF:

METAR-TAF

Aeroports :

Wiesbaden, Alemanya

latitud: 50-03N, longitud: 008-20E, altitud: 140 m

Observació

L'informe es va fer fa 1 hora i 3 minuts, a les 07:56 UTC
Vent 6 kt del Est
Temperatura 27°C
Humitat 42%
Pressió 1022 hPa
Visibilitat 10 km o més
Cel clar

METAR: ETOU 230756Z AUTO 10006KT 9999 CLR 27/13 A3019 RMK AO2 SLP218 T02670134

Hora: 10:59 (08:59 UTC)

Pronòstic

L'informe es va fer fa 5 hores i 43 minuts, a les 03:16 UTC
Pronòstic vàlid del 23 a les 03 UTC al 24 a les 09 UTC
Vent 6 kt amb direcció variable
Visibilitat 10 km o més
Cel clar

TAF: ETOU 230316Z 2303/2409 VRB06KT 9999 SKC QNH3010INS TX32/2315Z TN15/2304Z

Observacions i pronòstics meteorològics de més de 4000 aeroports (METAR i TAF).

Les estacions disponibles són els punts grocs i vermells al mapa.

Posi el ratolí al punt desitjat per veure el nom de l'estació.

Feu clic per veure les observacions i els pronòstics meteorològics.

Per canviar el mapa: feu clic els botons verds amb una creu de color negre per apropar; al botó verd amb un guió per allunyar la imatge; o en les fletxes verdes per a mapes adjacents.


METAR-TAF: